sensor_id;sensor_type;location;lat;lon;timestamp;temperature;humidity
20590;DHT22;10453;50.810;12.540;2023-12-20T00:02:09;4.60;99.90
20590;DHT22;10453;50.810;12.540;2023-12-20T00:06:26;4.60;99.90
20590;DHT22;10453;50.810;12.540;2023-12-20T00:10:44;4.60;99.90
20590;DHT22;10453;50.810;12.540;2023-12-20T00:15:01;4.60;99.90
20590;DHT22;10453;50.810;12.540;2023-12-20T00:19:20;4.60;99.90
20590;DHT22;10453;50.810;12.540;2023-12-20T00:23:37;4.60;99.90
20590;DHT22;10453;50.810;12.540;2023-12-20T00:27:54;4.60;99.90
20590;DHT22;10453;50.810;12.540;2023-12-20T00:32:11;4.50;99.90
20590;DHT22;10453;50.810;12.540;2023-12-20T00:36:28;4.50;99.90
20590;DHT22;10453;50.810;12.540;2023-12-20T00:40:46;4.60;99.90
20590;DHT22;10453;50.810;12.540;2023-12-20T00:45:03;4.60;99.90
20590;DHT22;10453;50.810;12.540;2023-12-20T00:49:21;4.50;99.90
20590;DHT22;10453;50.810;12.540;2023-12-20T00:53:39;4.50;99.90
20590;DHT22;10453;50.810;12.540;2023-12-20T00:57:56;4.50;99.90
20590;DHT22;10453;50.810;12.540;2023-12-20T01:02:13;4.50;99.90
20590;DHT22;10453;50.810;12.540;2023-12-20T01:06:30;4.50;99.90
20590;DHT22;10453;50.810;12.540;2023-12-20T01:10:48;4.50;99.90
20590;DHT22;10453;50.810;12.540;2023-12-20T01:15:05;4.50;99.90
20590;DHT22;10453;50.810;12.540;2023-12-20T01:19:24;4.40;99.90
20590;DHT22;10453;50.810;12.540;2023-12-20T01:23:41;4.40;99.90
20590;DHT22;10453;50.810;12.540;2023-12-20T01:27:59;4.40;99.90
20590;DHT22;10453;50.810;12.540;2023-12-20T01:32:16;4.40;99.90
20590;DHT22;10453;50.810;12.540;2023-12-20T01:36:34;4.40;99.90
20590;DHT22;10453;50.810;12.540;2023-12-20T01:40:51;4.40;99.90
20590;DHT22;10453;50.810;12.540;2023-12-20T01:45:09;4.30;99.90
20590;DHT22;10453;50.810;12.540;2023-12-20T01:49:26;4.30;99.90
20590;DHT22;10453;50.810;12.540;2023-12-20T01:53:44;4.30;99.90
20590;DHT22;10453;50.810;12.540;2023-12-20T01:58:01;4.30;99.90
20590;DHT22;10453;50.810;12.540;2023-12-20T02:12:53;4.30;99.90
20590;DHT22;10453;50.810;12.540;2023-12-20T02:17:23;4.30;99.90
20590;DHT22;10453;50.810;12.540;2023-12-20T02:21:41;4.20;99.90
20590;DHT22;10453;50.810;12.540;2023-12-20T02:26:03;4.20;99.90
20590;DHT22;10453;50.810;12.540;2023-12-20T02:30:28;4.20;99.90
20590;DHT22;10453;50.810;12.540;2023-12-20T02:34:49;4.20;99.90
20590;DHT22;10453;50.810;12.540;2023-12-20T02:39:12;4.10;99.90
20590;DHT22;10453;50.810;12.540;2023-12-20T02:43:33;4.20;99.90
20590;DHT22;10453;50.810;12.540;2023-12-20T02:48:02;4.20;99.90
20590;DHT22;10453;50.810;12.540;2023-12-20T02:52:34;4.20;99.90
20590;DHT22;10453;50.810;12.540;2023-12-20T02:56:54;4.20;99.90
20590;DHT22;10453;50.810;12.540;2023-12-20T03:01:17;4.30;99.90
20590;DHT22;10453;50.810;12.540;2023-12-20T03:05:38;4.20;99.90
20590;DHT22;10453;50.810;12.540;2023-12-20T03:10:00;4.20;99.90
20590;DHT22;10453;50.810;12.540;2023-12-20T03:14:39;4.20;99.90
20590;DHT22;10453;50.810;12.540;2023-12-20T03:18:58;4.30;99.90
20590;DHT22;10453;50.810;12.540;2023-12-20T03:23:16;4.20;99.90
20590;DHT22;10453;50.810;12.540;2023-12-20T03:27:39;4.20;99.90
20590;DHT22;10453;50.810;12.540;2023-12-20T03:32:06;4.20;99.90
20590;DHT22;10453;50.810;12.540;2023-12-20T03:36:34;4.20;99.90
20590;DHT22;10453;50.810;12.540;2023-12-20T03:40:56;4.20;99.90
20590;DHT22;10453;50.810;12.540;2023-12-20T03:45:22;4.20;99.90
20590;DHT22;10453;50.810;12.540;2023-12-20T03:49:45;4.20;99.90
20590;DHT22;10453;50.810;12.540;2023-12-20T03:54:19;4.20;99.90
20590;DHT22;10453;50.810;12.540;2023-12-20T03:58:37;4.20;99.90
20590;DHT22;10453;50.810;12.540;2023-12-20T04:02:58;4.20;99.90
20590;DHT22;10453;50.810;12.540;2023-12-20T04:07:19;4.20;99.90
20590;DHT22;10453;50.810;12.540;2023-12-20T04:11:39;4.20;99.90
20590;DHT22;10453;50.810;12.540;2023-12-20T04:16:06;4.20;99.90
20590;DHT22;10453;50.810;12.540;2023-12-20T04:20:43;4.20;99.90
20590;DHT22;10453;50.810;12.540;2023-12-20T04:25:04;4.30;99.90
20590;DHT22;10453;50.810;12.540;2023-12-20T04:29:28;4.30;99.90
20590;DHT22;10453;50.810;12.540;2023-12-20T04:33:48;4.30;99.90
20590;DHT22;10453;50.810;12.540;2023-12-20T04:38:21;4.30;99.90
20590;DHT22;10453;50.810;12.540;2023-12-20T04:42:50;4.30;99.90
20590;DHT22;10453;50.810;12.540;2023-12-20T04:47:09;4.30;99.90
20590;DHT22;10453;50.810;12.540;2023-12-20T04:51:33;4.30;99.90
20590;DHT22;10453;50.810;12.540;2023-12-20T04:55:59;4.40;99.90
20590;DHT22;10453;50.810;12.540;2023-12-20T05:00:23;4.40;99.90
20590;DHT22;10453;50.810;12.540;2023-12-20T05:04:48;4.30;99.90
20590;DHT22;10453;50.810;12.540;2023-12-20T05:09:18;4.40;99.90
20590;DHT22;10453;50.810;12.540;2023-12-20T05:13:43;4.40;99.90
20590;DHT22;10453;50.810;12.540;2023-12-20T05:18:14;4.40;99.90
20590;DHT22;10453;50.810;12.540;2023-12-20T05:22:50;4.40;99.90
20590;DHT22;10453;50.810;12.540;2023-12-20T05:27:09;4.40;99.90
20590;DHT22;10453;50.810;12.540;2023-12-20T05:31:31;4.40;99.90
20590;DHT22;10453;50.810;12.540;2023-12-20T05:36:19;4.40;99.90
20590;DHT22;10453;50.810;12.540;2023-12-20T05:40:43;4.40;99.90
20590;DHT22;10453;50.810;12.540;2023-12-20T05:45:03;4.50;99.90
20590;DHT22;10453;50.810;12.540;2023-12-20T05:49:28;4.60;99.90
20590;DHT22;10453;50.810;12.540;2023-12-20T05:53:50;4.60;99.90
20590;DHT22;10453;50.810;12.540;2023-12-20T05:58:35;4.80;99.90
20590;DHT22;10453;50.810;12.540;2023-12-20T06:02:55;4.70;99.90
20590;DHT22;10453;50.810;12.540;2023-12-20T06:07:19;4.70;99.90
20590;DHT22;10453;50.810;12.540;2023-12-20T06:11:42;4.70;99.90
20590;DHT22;10453;50.810;12.540;2023-12-20T06:16:05;4.70;99.90
20590;DHT22;10453;50.810;12.540;2023-12-20T06:20:28;4.70;99.90
20590;DHT22;10453;50.810;12.540;2023-12-20T06:24:46;4.70;99.90
20590;DHT22;10453;50.810;12.540;2023-12-20T06:29:18;4.70;99.90
20590;DHT22;10453;50.810;12.540;2023-12-20T06:33:46;4.60;99.90
20590;DHT22;10453;50.810;12.540;2023-12-20T06:38:17;4.70;99.90
20590;DHT22;10453;50.810;12.540;2023-12-20T06:42:39;4.70;99.90
20590;DHT22;10453;50.810;12.540;2023-12-20T06:47:14;4.80;99.90
20590;DHT22;10453;50.810;12.540;2023-12-20T06:51:38;4.80;99.90
20590;DHT22;10453;50.810;12.540;2023-12-20T06:55:57;4.90;99.90
20590;DHT22;10453;50.810;12.540;2023-12-20T07:00:18;4.90;99.90
20590;DHT22;10453;50.810;12.540;2023-12-20T07:04:40;4.80;99.90
20590;DHT22;10453;50.810;12.540;2023-12-20T07:08:59;4.90;99.90
20590;DHT22;10453;50.810;12.540;2023-12-20T07:13:17;4.90;99.90
20590;DHT22;10453;50.810;12.540;2023-12-20T07:17:38;4.90;99.90
20590;DHT22;10453;50.810;12.540;2023-12-20T07:22:01;5.00;99.90
20590;DHT22;10453;50.810;12.540;2023-12-20T07:26:29;5.00;99.90
20590;DHT22;10453;50.810;12.540;2023-12-20T07:30:56;4.90;99.90
20590;DHT22;10453;50.810;12.540;2023-12-20T07:35:19;4.90;99.90
20590;DHT22;10453;50.810;12.540;2023-12-20T07:39:43;5.00;99.90
20590;DHT22;10453;50.810;12.540;2023-12-20T07:44:06;4.90;99.90
20590;DHT22;10453;50.810;12.540;2023-12-20T07:48:24;4.90;99.90
20590;DHT22;10453;50.810;12.540;2023-12-20T07:52:46;4.90;99.90
20590;DHT22;10453;50.810;12.540;2023-12-20T07:57:06;4.90;99.90
20590;DHT22;10453;50.810;12.540;2023-12-20T08:01:28;4.90;99.90
20590;DHT22;10453;50.810;12.540;2023-12-20T08:05:58;5.00;99.90
20590;DHT22;10453;50.810;12.540;2023-12-20T08:10:18;4.90;99.90
20590;DHT22;10453;50.810;12.540;2023-12-20T08:14:39;5.00;99.90
20590;DHT22;10453;50.810;12.540;2023-12-20T08:18:58;5.00;99.90
20590;DHT22;10453;50.810;12.540;2023-12-20T08:23:20;5.00;99.90
20590;DHT22;10453;50.810;12.540;2023-12-20T08:27:43;5.10;99.90
20590;DHT22;10453;50.810;12.540;2023-12-20T08:32:04;5.10;99.90
20590;DHT22;10453;50.810;12.540;2023-12-20T08:36:24;5.00;99.90
20590;DHT22;10453;50.810;12.540;2023-12-20T08:40:50;4.90;99.90
20590;DHT22;10453;50.810;12.540;2023-12-20T08:45:09;4.90;99.90
20590;DHT22;10453;50.810;12.540;2023-12-20T08:49:28;5.00;99.90
20590;DHT22;10453;50.810;12.540;2023-12-20T08:53:47;5.00;99.90
20590;DHT22;10453;50.810;12.540;2023-12-20T08:58:15;5.00;99.90
20590;DHT22;10453;50.810;12.540;2023-12-20T09:02:35;5.20;99.90
20590;DHT22;10453;50.810;12.540;2023-12-20T09:07:26;5.30;99.90
20590;DHT22;10453;50.810;12.540;2023-12-20T09:11:49;5.30;99.90
20590;DHT22;10453;50.810;12.540;2023-12-20T09:16:13;5.30;99.90
20590;DHT22;10453;50.810;12.540;2023-12-20T09:20:35;5.30;99.90
20590;DHT22;10453;50.810;12.540;2023-12-20T09:24:55;5.40;99.90
20590;DHT22;10453;50.810;12.540;2023-12-20T09:29:15;5.70;99.90
20590;DHT22;10453;50.810;12.540;2023-12-20T09:33:41;5.80;99.90
20590;DHT22;10453;50.810;12.540;2023-12-20T09:38:02;5.70;99.90
20590;DHT22;10453;50.810;12.540;2023-12-20T09:42:53;5.70;99.90
20590;DHT22;10453;50.810;12.540;2023-12-20T09:47:33;5.80;99.90
20590;DHT22;10453;50.810;12.540;2023-12-20T09:51:55;5.80;99.90
20590;DHT22;10453;50.810;12.540;2023-12-20T09:56:22;5.80;99.90
20590;DHT22;10453;50.810;12.540;2023-12-20T10:00:44;5.90;99.90
20590;DHT22;10453;50.810;12.540;2023-12-20T10:05:15;6.00;99.90
20590;DHT22;10453;50.810;12.540;2023-12-20T10:09:47;5.90;99.90
20590;DHT22;10453;50.810;12.540;2023-12-20T10:14:10;5.80;99.90
20590;DHT22;10453;50.810;12.540;2023-12-20T10:18:47;6.00;99.90
20590;DHT22;10453;50.810;12.540;2023-12-20T10:23:25;6.20;99.90
20590;DHT22;10453;50.810;12.540;2023-12-20T10:27:49;6.40;99.90
20590;DHT22;10453;50.810;12.540;2023-12-20T10:32:23;6.30;99.90
20590;DHT22;10453;50.810;12.540;2023-12-20T10:36:47;6.30;99.90
20590;DHT22;10453;50.810;12.540;2023-12-20T10:41:09;6.20;99.90
20590;DHT22;10453;50.810;12.540;2023-12-20T10:45:35;6.20;99.90
20590;DHT22;10453;50.810;12.540;2023-12-20T10:49:59;6.30;99.90
20590;DHT22;10453;50.810;12.540;2023-12-20T10:54:30;6.60;99.90
20590;DHT22;10453;50.810;12.540;2023-12-20T10:59:14;6.70;99.90
20590;DHT22;10453;50.810;12.540;2023-12-20T11:13:41;6.60;99.90
20590;DHT22;10453;50.810;12.540;2023-12-20T11:18:18;6.70;99.90
20590;DHT22;10453;50.810;12.540;2023-12-20T11:23:15;6.80;99.90
20590;DHT22;10453;50.810;12.540;2023-12-20T11:34:17;7.40;99.90
20590;DHT22;10453;50.810;12.540;2023-12-20T11:39:09;7.90;99.90
20590;DHT22;10453;50.810;12.540;2023-12-20T11:43:40;7.60;99.90
20590;DHT22;10453;50.810;12.540;2023-12-20T11:48:10;7.40;99.90
20590;DHT22;10453;50.810;12.540;2023-12-20T11:53:07;7.20;99.90
20590;DHT22;10453;50.810;12.540;2023-12-20T11:57:40;7.30;99.90
20590;DHT22;10453;50.810;12.540;2023-12-20T12:02:05;7.30;99.90
20590;DHT22;10453;50.810;12.540;2023-12-20T12:06:35;7.60;99.90
20590;DHT22;10453;50.810;12.540;2023-12-20T12:10:56;7.50;99.90
20590;DHT22;10453;50.810;12.540;2023-12-20T12:15:14;8.00;99.90
20590;DHT22;10453;50.810;12.540;2023-12-20T12:19:32;8.00;99.90
20590;DHT22;10453;50.810;12.540;2023-12-20T12:23:53;8.00;99.90
20590;DHT22;10453;50.810;12.540;2023-12-20T12:28:10;8.10;99.90
20590;DHT22;10453;50.810;12.540;2023-12-20T12:32:28;8.10;99.90
20590;DHT22;10453;50.810;12.540;2023-12-20T12:36:45;8.00;99.90
20590;DHT22;10453;50.810;12.540;2023-12-20T12:41:05;8.00;99.90
20590;DHT22;10453;50.810;12.540;2023-12-20T12:45:24;8.10;99.90
20590;DHT22;10453;50.810;12.540;2023-12-20T12:49:44;8.00;99.90
20590;DHT22;10453;50.810;12.540;2023-12-20T12:54:01;8.00;99.90
20590;DHT22;10453;50.810;12.540;2023-12-20T12:58:19;7.80;99.90
20590;DHT22;10453;50.810;12.540;2023-12-20T13:02:37;7.50;99.90
20590;DHT22;10453;50.810;12.540;2023-12-20T13:06:55;7.30;99.90
20590;DHT22;10453;50.810;12.540;2023-12-20T13:11:15;7.20;99.90
20590;DHT22;10453;50.810;12.540;2023-12-20T13:15:32;7.10;99.90
20590;DHT22;10453;50.810;12.540;2023-12-20T13:19:49;7.00;99.90
20590;DHT22;10453;50.810;12.540;2023-12-20T13:24:07;7.00;99.90
20590;DHT22;10453;50.810;12.540;2023-12-20T13:28:24;7.00;99.90
20590;DHT22;10453;50.810;12.540;2023-12-20T13:32:42;7.00;99.90
20590;DHT22;10453;50.810;12.540;2023-12-20T13:37:00;6.80;99.90
20590;DHT22;10453;50.810;12.540;2023-12-20T13:41:17;6.70;99.90
20590;DHT22;10453;50.810;12.540;2023-12-20T13:45:36;6.70;99.90
20590;DHT22;10453;50.810;12.540;2023-12-20T13:49:53;6.80;99.90
20590;DHT22;10453;50.810;12.540;2023-12-20T13:54:11;6.80;99.90
20590;DHT22;10453;50.810;12.540;2023-12-20T13:58:28;6.80;99.90
20590;DHT22;10453;50.810;12.540;2023-12-20T14:02:46;6.90;99.90
20590;DHT22;10453;50.810;12.540;2023-12-20T14:07:03;6.90;99.90
20590;DHT22;10453;50.810;12.540;2023-12-20T14:11:21;6.80;99.90
20590;DHT22;10453;50.810;12.540;2023-12-20T14:15:40;6.70;99.90
20590;DHT22;10453;50.810;12.540;2023-12-20T14:19:57;6.60;99.90
20590;DHT22;10453;50.810;12.540;2023-12-20T14:24:15;6.40;99.90
20590;DHT22;10453;50.810;12.540;2023-12-20T14:28:32;6.30;99.90
20590;DHT22;10453;50.810;12.540;2023-12-20T14:32:49;6.20;99.90
20590;DHT22;10453;50.810;12.540;2023-12-20T14:37:06;6.00;99.90
20590;DHT22;10453;50.810;12.540;2023-12-20T14:41:24;5.90;99.90
20590;DHT22;10453;50.810;12.540;2023-12-20T14:45:42;5.80;99.90
20590;DHT22;10453;50.810;12.540;2023-12-20T14:50:02;5.70;99.90
20590;DHT22;10453;50.810;12.540;2023-12-20T14:54:19;5.70;99.90
20590;DHT22;10453;50.810;12.540;2023-12-20T14:58:38;5.60;99.90
20590;DHT22;10453;50.810;12.540;2023-12-20T15:02:55;5.60;99.90
20590;DHT22;10453;50.810;12.540;2023-12-20T15:07:12;5.50;99.90
20590;DHT22;10453;50.810;12.540;2023-12-20T15:11:30;5.50;99.90
20590;DHT22;10453;50.810;12.540;2023-12-20T15:15:47;5.30;99.90
20590;DHT22;10453;50.810;12.540;2023-12-20T15:20:05;5.30;99.90
20590;DHT22;10453;50.810;12.540;2023-12-20T15:24:24;5.50;99.90
20590;DHT22;10453;50.810;12.540;2023-12-20T15:28:45;5.50;99.90
20590;DHT22;10453;50.810;12.540;2023-12-20T15:33:02;5.50;99.90
20590;DHT22;10453;50.810;12.540;2023-12-20T15:37:23;5.60;99.90
20590;DHT22;10453;50.810;12.540;2023-12-20T15:41:43;5.50;99.90
20590;DHT22;10453;50.810;12.540;2023-12-20T15:46:01;5.50;99.90
20590;DHT22;10453;50.810;12.540;2023-12-20T15:50:22;5.40;99.90
20590;DHT22;10453;50.810;12.540;2023-12-20T15:54:40;5.40;99.90
20590;DHT22;10453;50.810;12.540;2023-12-20T15:58:58;5.30;99.90
20590;DHT22;10453;50.810;12.540;2023-12-20T16:03:16;5.30;99.90
20590;DHT22;10453;50.810;12.540;2023-12-20T16:07:41;5.30;99.90
20590;DHT22;10453;50.810;12.540;2023-12-20T16:12:00;5.40;99.90
20590;DHT22;10453;50.810;12.540;2023-12-20T16:16:18;5.40;99.90
20590;DHT22;10453;50.810;12.540;2023-12-20T16:20:35;5.40;99.90
20590;DHT22;10453;50.810;12.540;2023-12-20T16:24:53;5.50;99.90
20590;DHT22;10453;50.810;12.540;2023-12-20T16:29:10;5.70;99.90
20590;DHT22;10453;50.810;12.540;2023-12-20T16:33:29;5.80;99.90
20590;DHT22;10453;50.810;12.540;2023-12-20T16:37:47;5.80;99.90
20590;DHT22;10453;50.810;12.540;2023-12-20T16:42:05;5.80;99.90
20590;DHT22;10453;50.810;12.540;2023-12-20T16:46:25;5.80;99.90
20590;DHT22;10453;50.810;12.540;2023-12-20T16:50:42;5.90;99.90
20590;DHT22;10453;50.810;12.540;2023-12-20T16:55:03;6.00;99.90
20590;DHT22;10453;50.810;12.540;2023-12-20T16:59:21;6.00;99.90
20590;DHT22;10453;50.810;12.540;2023-12-20T17:03:38;6.00;99.90
20590;DHT22;10453;50.810;12.540;2023-12-20T17:07:55;6.00;99.90
20590;DHT22;10453;50.810;12.540;2023-12-20T17:12:12;6.10;99.90
20590;DHT22;10453;50.810;12.540;2023-12-20T17:16:30;6.10;99.90
20590;DHT22;10453;50.810;12.540;2023-12-20T17:20:48;6.10;99.90
20590;DHT22;10453;50.810;12.540;2023-12-20T17:25:06;6.00;99.90
20590;DHT22;10453;50.810;12.540;2023-12-20T17:29:23;6.00;99.90
20590;DHT22;10453;50.810;12.540;2023-12-20T17:33:40;5.90;99.90
20590;DHT22;10453;50.810;12.540;2023-12-20T17:37:59;5.90;99.90
20590;DHT22;10453;50.810;12.540;2023-12-20T17:42:16;5.80;99.90
20590;DHT22;10453;50.810;12.540;2023-12-20T17:46:33;5.80;99.90
20590;DHT22;10453;50.810;12.540;2023-12-20T17:50:51;5.70;99.90
20590;DHT22;10453;50.810;12.540;2023-12-20T17:55:08;5.70;99.90
20590;DHT22;10453;50.810;12.540;2023-12-20T17:59:26;5.80;99.90
20590;DHT22;10453;50.810;12.540;2023-12-20T18:03:43;5.70;99.90
20590;DHT22;10453;50.810;12.540;2023-12-20T18:08:00;5.60;99.90
20590;DHT22;10453;50.810;12.540;2023-12-20T18:12:19;5.60;99.90
20590;DHT22;10453;50.810;12.540;2023-12-20T18:16:36;5.60;99.90
20590;DHT22;10453;50.810;12.540;2023-12-20T18:20:55;5.60;99.90
20590;DHT22;10453;50.810;12.540;2023-12-20T18:25:14;5.60;99.90
20590;DHT22;10453;50.810;12.540;2023-12-20T18:29:32;5.50;99.90
20590;DHT22;10453;50.810;12.540;2023-12-20T18:33:52;5.40;99.90
20590;DHT22;10453;50.810;12.540;2023-12-20T18:38:12;5.30;99.90
20590;DHT22;10453;50.810;12.540;2023-12-20T18:42:33;5.30;99.90
20590;DHT22;10453;50.810;12.540;2023-12-20T18:46:50;5.40;99.90
20590;DHT22;10453;50.810;12.540;2023-12-20T18:51:08;5.30;99.90
20590;DHT22;10453;50.810;12.540;2023-12-20T18:55:25;5.40;99.90
20590;DHT22;10453;50.810;12.540;2023-12-20T18:59:42;5.40;99.90
20590;DHT22;10453;50.810;12.540;2023-12-20T19:04:01;5.40;99.90
20590;DHT22;10453;50.810;12.540;2023-12-20T19:08:19;5.30;99.90
20590;DHT22;10453;50.810;12.540;2023-12-20T19:12:39;5.20;99.90
20590;DHT22;10453;50.810;12.540;2023-12-20T19:16:57;5.10;99.90
20590;DHT22;10453;50.810;12.540;2023-12-20T19:21:18;5.10;99.90
20590;DHT22;10453;50.810;12.540;2023-12-20T19:25:35;5.10;99.90
20590;DHT22;10453;50.810;12.540;2023-12-20T19:29:53;5.20;99.90
20590;DHT22;10453;50.810;12.540;2023-12-20T19:34:14;5.20;99.90
20590;DHT22;10453;50.810;12.540;2023-12-20T19:38:33;5.10;99.90
20590;DHT22;10453;50.810;12.540;2023-12-20T19:42:52;5.20;99.90
20590;DHT22;10453;50.810;12.540;2023-12-20T19:47:10;5.10;99.90
20590;DHT22;10453;50.810;12.540;2023-12-20T19:51:27;5.10;99.90
20590;DHT22;10453;50.810;12.540;2023-12-20T19:55:45;5.10;99.90
20590;DHT22;10453;50.810;12.540;2023-12-20T20:00:04;5.20;99.90
20590;DHT22;10453;50.810;12.540;2023-12-20T20:04:22;5.20;99.90
20590;DHT22;10453;50.810;12.540;2023-12-20T20:08:40;5.20;99.90
20590;DHT22;10453;50.810;12.540;2023-12-20T20:12:58;5.10;99.90
20590;DHT22;10453;50.810;12.540;2023-12-20T20:17:16;5.20;99.90
20590;DHT22;10453;50.810;12.540;2023-12-20T20:21:33;5.20;99.90
20590;DHT22;10453;50.810;12.540;2023-12-20T20:25:51;5.20;99.90
20590;DHT22;10453;50.810;12.540;2023-12-20T20:30:08;5.30;99.90
20590;DHT22;10453;50.810;12.540;2023-12-20T20:34:26;5.30;99.90
20590;DHT22;10453;50.810;12.540;2023-12-20T20:38:44;5.30;99.90
20590;DHT22;10453;50.810;12.540;2023-12-20T20:43:04;5.30;99.90
20590;DHT22;10453;50.810;12.540;2023-12-20T20:47:21;5.40;99.90
20590;DHT22;10453;50.810;12.540;2023-12-20T20:51:38;5.40;99.90
20590;DHT22;10453;50.810;12.540;2023-12-20T20:55:56;5.40;99.90
20590;DHT22;10453;50.810;12.540;2023-12-20T21:00:16;5.40;99.90
20590;DHT22;10453;50.810;12.540;2023-12-20T21:04:36;5.40;99.90
20590;DHT22;10453;50.810;12.540;2023-12-20T21:08:54;5.40;99.90
20590;DHT22;10453;50.810;12.540;2023-12-20T21:13:12;5.50;99.90
20590;DHT22;10453;50.810;12.540;2023-12-20T21:17:31;5.50;99.90
20590;DHT22;10453;50.810;12.540;2023-12-20T21:21:50;5.50;99.90
20590;DHT22;10453;50.810;12.540;2023-12-20T21:26:08;5.50;99.90
20590;DHT22;10453;50.810;12.540;2023-12-20T21:30:28;5.50;99.90
20590;DHT22;10453;50.810;12.540;2023-12-20T21:34:50;5.50;99.90
20590;DHT22;10453;50.810;12.540;2023-12-20T21:39:08;5.50;99.90
20590;DHT22;10453;50.810;12.540;2023-12-20T21:43:27;5.50;99.90
20590;DHT22;10453;50.810;12.540;2023-12-20T21:47:45;5.60;99.90
20590;DHT22;10453;50.810;12.540;2023-12-20T21:52:03;5.60;99.90
20590;DHT22;10453;50.810;12.540;2023-12-20T21:56:20;5.50;99.90
20590;DHT22;10453;50.810;12.540;2023-12-20T22:00:38;5.50;99.90
20590;DHT22;10453;50.810;12.540;2023-12-20T22:04:55;5.60;99.90
20590;DHT22;10453;50.810;12.540;2023-12-20T22:09:12;5.60;99.90
20590;DHT22;10453;50.810;12.540;2023-12-20T22:13:30;5.60;99.90
20590;DHT22;10453;50.810;12.540;2023-12-20T22:17:49;5.60;99.90
20590;DHT22;10453;50.810;12.540;2023-12-20T22:22:07;5.60;99.90
20590;DHT22;10453;50.810;12.540;2023-12-20T22:26:26;5.60;99.90
20590;DHT22;10453;50.810;12.540;2023-12-20T22:30:43;5.70;99.90
20590;DHT22;10453;50.810;12.540;2023-12-20T22:35:01;5.60;99.90
20590;DHT22;10453;50.810;12.540;2023-12-20T22:39:20;5.70;99.90
20590;DHT22;10453;50.810;12.540;2023-12-20T22:43:39;5.70;99.90
20590;DHT22;10453;50.810;12.540;2023-12-20T22:47:58;5.70;99.90
20590;DHT22;10453;50.810;12.540;2023-12-20T22:52:16;5.80;99.90
20590;DHT22;10453;50.810;12.540;2023-12-20T22:56:34;5.80;99.90
20590;DHT22;10453;50.810;12.540;2023-12-20T23:00:51;5.90;99.90
20590;DHT22;10453;50.810;12.540;2023-12-20T23:05:08;5.90;99.90
20590;DHT22;10453;50.810;12.540;2023-12-20T23:09:25;6.00;99.90
20590;DHT22;10453;50.810;12.540;2023-12-20T23:13:43;5.90;99.90
20590;DHT22;10453;50.810;12.540;2023-12-20T23:18:00;5.90;99.90
20590;DHT22;10453;50.810;12.540;2023-12-20T23:22:18;5.90;99.90
20590;DHT22;10453;50.810;12.540;2023-12-20T23:26:37;6.00;99.90
20590;DHT22;10453;50.810;12.540;2023-12-20T23:30:54;6.00;99.90
20590;DHT22;10453;50.810;12.540;2023-12-20T23:35:12;6.00;99.90
20590;DHT22;10453;50.810;12.540;2023-12-20T23:39:33;6.00;99.90
20590;DHT22;10453;50.810;12.540;2023-12-20T23:43:50;6.00;99.90
20590;DHT22;10453;50.810;12.540;2023-12-20T23:48:07;5.90;99.90
20590;DHT22;10453;50.810;12.540;2023-12-20T23:52:25;5.90;99.90
20590;DHT22;10453;50.810;12.540;2023-12-20T23:56:42;5.90;99.90
